sensor_id;sensor_type;location;lat;lon;timestamp;pressure;altitude;pressure_sealevel;temperature;humidity
8039;BME280;4062;49.844;8.120;2022-08-01T00:00:11;99316.09;;;20.51;54.56
8039;BME280;4062;49.844;8.120;2022-08-01T00:02:12;99310.72;;;20.51;54.96
8039;BME280;4062;49.844;8.120;2022-08-01T00:04:12;99314.25;;;20.51;54.63
8039;BME280;4062;49.844;8.120;2022-08-01T00:06:13;99311.56;;;20.51;54.71
8039;BME280;4062;49.844;8.120;2022-08-01T00:08:14;99319.63;;;20.51;54.90
8039;BME280;4062;49.844;8.120;2022-08-01T00:10:16;99315.13;;;20.52;54.54
8039;BME280;4062;49.844;8.120;2022-08-01T00:12:17;99316.09;;;20.51;55.00
8039;BME280;4062;49.844;8.120;2022-08-01T00:14:17;99315.13;;;20.52;54.85
8039;BME280;4062;49.844;8.120;2022-08-01T00:16:18;99314.25;;;20.51;54.91
8039;BME280;4062;49.844;8.120;2022-08-01T00:18:19;99313.41;;;20.51;54.84
8039;BME280;4062;49.844;8.120;2022-08-01T00:20:20;99318.75;;;20.51;55.02
8039;BME280;4062;49.844;8.120;2022-08-01T00:22:20;99316.94;;;20.51;54.57
8039;BME280;4062;49.844;8.120;2022-08-01T00:24:21;99316.94;;;20.51;54.54
8039;BME280;4062;49.844;8.120;2022-08-01T00:26:22;99321.44;;;20.51;54.91
8039;BME280;4062;49.844;8.120;2022-08-01T00:28:23;99316.09;;;20.51;55.13
8039;BME280;4062;49.844;8.120;2022-08-01T00:30:23;99321.44;;;20.51;54.66
8039;BME280;4062;49.844;8.120;2022-08-01T00:32:24;99314.25;;;20.51;54.79
8039;BME280;4062;49.844;8.120;2022-08-01T00:34:25;99318.75;;;20.51;54.92
8039;BME280;4062;49.844;8.120;2022-08-01T00:36:26;99323.25;;;20.50;54.93
8039;BME280;4062;49.844;8.120;2022-08-01T00:38:27;99321.44;;;20.51;55.09
8039;BME280;4062;49.844;8.120;2022-08-01T00:40:27;99315.19;;;20.50;55.16
8039;BME280;4062;49.844;8.120;2022-08-01T00:42:28;99321.44;;;20.51;55.04
8039;BME280;4062;49.844;8.120;2022-08-01T00:44:29;99315.19;;;20.50;55.03
8039;BME280;4062;49.844;8.120;2022-08-01T00:46:29;99320.56;;;20.50;54.97
8039;BME280;4062;49.844;8.120;2022-08-01T00:48:30;99320.56;;;20.50;54.90
8039;BME280;4062;49.844;8.120;2022-08-01T00:50:31;99316.94;;;20.51;54.90
8039;BME280;4062;49.844;8.120;2022-08-01T00:52:33;99314.25;;;20.51;54.74
8039;BME280;4062;49.844;8.120;2022-08-01T00:54:35;99317.88;;;20.50;54.84
8039;BME280;4062;49.844;8.120;2022-08-01T00:56:36;99320.56;;;20.50;55.12
8039;BME280;4062;49.844;8.120;2022-08-01T00:58:37;99318.75;;;20.51;54.84
8039;BME280;4062;49.844;8.120;2022-08-01T01:00:38;99309.00;;;20.50;54.79
8039;BME280;4062;49.844;8.120;2022-08-01T01:02:38;99318.75;;;20.51;54.65
8039;BME280;4062;49.844;8.120;2022-08-01T01:04:39;99324.13;;;20.51;54.77
8039;BME280;4062;49.844;8.120;2022-08-01T01:12:00;99333.91;;;20.52;54.87
8039;BME280;4062;49.844;8.120;2022-08-01T01:14:05;99341.09;;;20.51;54.71
8039;BME280;4062;49.844;8.120;2022-08-01T01:16:14;99332.19;;;20.51;54.98
8039;BME280;4062;49.844;8.120;2022-08-01T01:28:08;99332.19;;;20.51;54.77
8039;BME280;4062;49.844;8.120;2022-08-01T01:30:10;99331.31;;;20.50;54.84
8039;BME280;4062;49.844;8.120;2022-08-01T01:32:35;99328.63;;;20.50;55.02
8039;BME280;4062;49.844;8.120;2022-08-01T01:34:39;99337.56;;;20.51;55.04
8039;BME280;4062;49.844;8.120;2022-08-01T01:36:42;99334.00;;;20.50;54.90
8039;BME280;4062;49.844;8.120;2022-08-01T01:38:45;99334.00;;;20.50;54.87
8039;BME280;4062;49.844;8.120;2022-08-01T01:40:49;99340.22;;;20.51;55.06
8039;BME280;4062;49.844;8.120;2022-08-01T01:42:51;99335.81;;;20.50;55.04
8039;BME280;4062;49.844;8.120;2022-08-01T01:44:52;99331.31;;;20.50;55.02
8039;BME280;4062;49.844;8.120;2022-08-01T01:46:56;99332.19;;;20.51;55.12
8039;BME280;4062;49.844;8.120;2022-08-01T01:48:58;99337.56;;;20.51;54.92
8039;BME280;4062;49.844;8.120;2022-08-01T01:51:01;99336.69;;;20.50;55.11
8039;BME280;4062;49.844;8.120;2022-08-01T01:53:04;99333.16;;;20.50;54.92
8039;BME280;4062;49.844;8.120;2022-08-01T01:55:08;99341.09;;;20.51;54.85
8039;BME280;4062;49.844;8.120;2022-08-01T01:57:12;99336.69;;;20.50;54.93
8039;BME280;4062;49.844;8.120;2022-08-01T01:59:13;99349.13;;;20.51;54.99
8039;BME280;4062;49.844;8.120;2022-08-01T02:01:15;99345.59;;;20.51;55.03
8039;BME280;4062;49.844;8.120;2022-08-01T02:03:19;99339.34;;;20.50;55.15
8039;BME280;4062;49.844;8.120;2022-08-01T02:05:21;99343.75;;;20.51;54.56
8039;BME280;4062;49.844;8.120;2022-08-01T02:07:24;99342.91;;;20.51;54.67
8039;BME280;4062;49.844;8.120;2022-08-01T02:09:28;99346.56;;;20.50;54.72
8039;BME280;4062;49.844;8.120;2022-08-01T02:11:30;99347.41;;;20.50;54.99
8039;BME280;4062;49.844;8.120;2022-08-01T02:13:33;99348.28;;;20.51;55.08
8039;BME280;4062;49.844;8.120;2022-08-01T02:15:36;99348.28;;;20.51;55.06
8039;BME280;4062;49.844;8.120;2022-08-01T02:17:45;99345.59;;;20.51;54.81
8039;BME280;4062;49.844;8.120;2022-08-01T02:19:48;99345.59;;;20.51;54.57
8039;BME280;4062;49.844;8.120;2022-08-01T02:21:57;99347.41;;;20.50;54.99
8039;BME280;4062;49.844;8.120;2022-08-01T02:26:33;99338.50;;;20.50;54.70
8039;BME280;4062;49.844;8.120;2022-08-01T02:29:02;99344.72;;;20.50;54.75
8039;BME280;4062;49.844;8.120;2022-08-01T02:31:08;99342.03;;;20.50;54.66
8039;BME280;4062;49.844;8.120;2022-08-01T02:33:19;99341.19;;;20.50;54.80
8039;BME280;4062;49.844;8.120;2022-08-01T02:35:27;99335.81;;;20.50;54.61
8039;BME280;4062;49.844;8.120;2022-08-01T02:37:33;99334.00;;;20.50;54.83
8039;BME280;4062;49.844;8.120;2022-08-01T02:39:35;99342.03;;;20.50;54.68
8039;BME280;4062;49.844;8.120;2022-08-01T02:41:43;99340.31;;;20.49;54.64
8039;BME280;4062;49.844;8.120;2022-08-01T02:43:49;99343.00;;;20.49;54.99
8039;BME280;4062;49.844;8.120;2022-08-01T02:45:58;99342.03;;;20.50;54.66
8039;BME280;4062;49.844;8.120;2022-08-01T02:48:14;99342.03;;;20.50;55.02
8039;BME280;4062;49.844;8.120;2022-08-01T02:50:16;99334.88;;;20.51;54.80
8039;BME280;4062;49.844;8.120;2022-08-01T02:52:20;99332.19;;;20.51;54.72
8039;BME280;4062;49.844;8.120;2022-08-01T02:54:23;99330.47;;;20.50;54.60
8039;BME280;4062;49.844;8.120;2022-08-01T02:56:25;99332.25;;;20.49;55.05
8039;BME280;4062;49.844;8.120;2022-08-01T02:58:36;99330.47;;;20.50;54.75
8039;BME280;4062;49.844;8.120;2022-08-01T03:00:39;99326.81;;;20.51;54.68
8039;BME280;4062;49.844;8.120;2022-08-01T03:02:44;99328.63;;;20.50;54.87
8039;BME280;4062;49.844;8.120;2022-08-01T03:04:45;99330.47;;;20.50;54.76
8039;BME280;4062;49.844;8.120;2022-08-01T03:06:48;99333.16;;;20.50;54.72
8039;BME280;4062;49.844;8.120;2022-08-01T03:08:51;99331.31;;;20.50;54.78
8039;BME280;4062;49.844;8.120;2022-08-01T03:10:53;99330.47;;;20.50;54.96
8039;BME280;4062;49.844;8.120;2022-08-01T03:12:57;99330.47;;;20.50;54.93
8039;BME280;4062;49.844;8.120;2022-08-01T03:15:02;99330.47;;;20.50;54.68
8039;BME280;4062;49.844;8.120;2022-08-01T03:17:05;99332.19;;;20.51;54.96
8039;BME280;4062;49.844;8.120;2022-08-01T03:19:08;99333.16;;;20.50;55.01
8039;BME280;4062;49.844;8.120;2022-08-01T03:21:12;99339.34;;;20.50;55.21
8039;BME280;4062;49.844;8.120;2022-08-01T03:23:15;99331.31;;;20.50;55.02
8039;BME280;4062;49.844;8.120;2022-08-01T03:25:18;99333.16;;;20.50;54.91
8039;BME280;4062;49.844;8.120;2022-08-01T03:27:20;99332.25;;;20.49;54.66
8039;BME280;4062;49.844;8.120;2022-08-01T03:29:25;99334.94;;;20.49;54.82
8039;BME280;4062;49.844;8.120;2022-08-01T03:31:28;99342.03;;;20.50;54.71
8039;BME280;4062;49.844;8.120;2022-08-01T03:33:29;99335.81;;;20.50;55.05
8039;BME280;4062;49.844;8.120;2022-08-01T03:35:37;99335.81;;;20.50;55.04
8039;BME280;4062;49.844;8.120;2022-08-01T03:37:46;99331.41;;;20.49;54.91
8039;BME280;4062;49.844;8.120;2022-08-01T03:40:08;99347.41;;;20.50;54.63
8039;BME280;4062;49.844;8.120;2022-08-01T03:42:16;99345.69;;;20.49;55.05
8039;BME280;4062;49.844;8.120;2022-08-01T03:44:24;99351.94;;;20.50;55.03
8039;BME280;4062;49.844;8.120;2022-08-01T03:46:38;99356.41;;;20.49;54.93
8039;BME280;4062;49.844;8.120;2022-08-01T03:48:46;99353.72;;;20.49;54.73
8039;BME280;4062;49.844;8.120;2022-08-01T03:50:51;99353.72;;;20.49;54.73
8039;BME280;4062;49.844;8.120;2022-08-01T03:52:55;99352.00;;;20.48;55.00
8039;BME280;4062;49.844;8.120;2022-08-01T03:55:06;99353.72;;;20.49;54.98
8039;BME280;4062;49.844;8.120;2022-08-01T03:57:09;99351.94;;;20.50;54.87
8039;BME280;4062;49.844;8.120;2022-08-01T03:59:11;99349.25;;;20.50;54.63
8039;BME280;4062;49.844;8.120;2022-08-01T04:01:13;99348.38;;;20.49;55.23
8039;BME280;4062;49.844;8.120;2022-08-01T04:03:14;99351.94;;;20.50;54.90
8039;BME280;4062;49.844;8.120;2022-08-01T04:05:16;99347.53;;;20.49;54.83
8039;BME280;4062;49.844;8.120;2022-08-01T04:07:26;99344.84;;;20.49;54.77
8039;BME280;4062;49.844;8.120;2022-08-01T04:09:27;99349.25;;;20.50;54.87
8039;BME280;4062;49.844;8.120;2022-08-01T04:11:28;99353.72;;;20.49;55.13
8039;BME280;4062;49.844;8.120;2022-08-01T04:13:31;99352.78;;;20.50;54.97
8039;BME280;4062;49.844;8.120;2022-08-01T04:15:32;99359.97;;;20.50;55.09
8039;BME280;4062;49.844;8.120;2022-08-01T04:17:32;99364.38;;;20.51;55.02
8039;BME280;4062;49.844;8.120;2022-08-01T04:19:33;99359.09;;;20.49;54.79
8039;BME280;4062;49.844;8.120;2022-08-01T04:21:35;99354.63;;;20.50;55.00
8039;BME280;4062;49.844;8.120;2022-08-01T04:23:37;99359.09;;;20.49;54.82
8039;BME280;4062;49.844;8.120;2022-08-01T04:25:40;99358.25;;;20.49;54.87
8039;BME280;4062;49.844;8.120;2022-08-01T04:27:46;99359.97;;;20.50;54.64
8039;BME280;4062;49.844;8.120;2022-08-01T04:29:51;99366.31;;;20.49;54.87
8039;BME280;4062;49.844;8.120;2022-08-01T04:31:55;99367.16;;;20.49;54.82
8039;BME280;4062;49.844;8.120;2022-08-01T04:33:58;99370.72;;;20.50;54.85
8039;BME280;4062;49.844;8.120;2022-08-01T04:36:01;99376.09;;;20.50;54.93
8039;BME280;4062;49.844;8.120;2022-08-01T04:38:03;99372.53;;;20.49;55.16
8039;BME280;4062;49.844;8.120;2022-08-01T04:40:06;99372.53;;;20.49;55.13
8039;BME280;4062;49.844;8.120;2022-08-01T04:42:08;99377.88;;;20.49;54.68
8039;BME280;4062;49.844;8.120;2022-08-01T04:44:11;99378.78;;;20.50;54.75
8039;BME280;4062;49.844;8.120;2022-08-01T04:46:13;99379.72;;;20.49;55.12
8039;BME280;4062;49.844;8.120;2022-08-01T04:48:17;99388.63;;;20.49;55.13
8039;BME280;4062;49.844;8.120;2022-08-01T04:50:20;99387.78;;;20.49;54.68
8039;BME280;4062;49.844;8.120;2022-08-01T04:52:22;99389.50;;;20.50;55.06
8039;BME280;4062;49.844;8.120;2022-08-01T04:54:27;99390.34;;;20.50;55.08
8039;BME280;4062;49.844;8.120;2022-08-01T04:56:28;99392.19;;;20.50;55.18
8039;BME280;4062;49.844;8.120;2022-08-01T04:58:29;99396.69;;;20.49;54.67
8039;BME280;4062;49.844;8.120;2022-08-01T05:00:29;99392.25;;;20.48;54.68
8039;BME280;4062;49.844;8.120;2022-08-01T05:02:30;99396.69;;;20.49;54.94
8039;BME280;4062;49.844;8.120;2022-08-01T05:04:31;99396.69;;;20.49;54.67
8039;BME280;4062;49.844;8.120;2022-08-01T05:06:32;99401.19;;;20.49;54.96
8039;BME280;4062;49.844;8.120;2022-08-01T05:08:32;99403.88;;;20.49;55.13
8039;BME280;4062;49.844;8.120;2022-08-01T05:10:34;99401.19;;;20.49;55.06
8039;BME280;4062;49.844;8.120;2022-08-01T05:12:35;99399.34;;;20.49;54.63
8039;BME280;4062;49.844;8.120;2022-08-01T05:14:36;99402.03;;;20.49;54.60
8039;BME280;4062;49.844;8.120;2022-08-01T05:16:37;99396.69;;;20.49;54.64
8039;BME280;4062;49.844;8.120;2022-08-01T05:18:37;99404.72;;;20.49;54.75
8039;BME280;4062;49.844;8.120;2022-08-01T05:20:38;99408.28;;;20.50;54.84
8039;BME280;4062;49.844;8.120;2022-08-01T05:22:39;99407.41;;;20.49;54.64
8039;BME280;4062;49.844;8.120;2022-08-01T05:24:40;99404.72;;;20.49;55.12
8039;BME280;4062;49.844;8.120;2022-08-01T05:26:41;99405.59;;;20.50;55.01
8039;BME280;4062;49.844;8.120;2022-08-01T05:28:42;99403.78;;;20.50;55.09
8039;BME280;4062;49.844;8.120;2022-08-01T05:30:43;99411.81;;;20.50;55.10
8039;BME280;4062;49.844;8.120;2022-08-01T05:32:43;99407.41;;;20.49;54.85
8039;BME280;4062;49.844;8.120;2022-08-01T05:34:44;99404.72;;;20.49;54.60
8039;BME280;4062;49.844;8.120;2022-08-01T05:36:45;99413.66;;;20.50;55.18
8039;BME280;4062;49.844;8.120;2022-08-01T05:38:46;99406.56;;;20.49;54.76
8039;BME280;4062;49.844;8.120;2022-08-01T05:40:47;99411.81;;;20.50;54.73
8039;BME280;4062;49.844;8.120;2022-08-01T05:42:47;99406.44;;;20.50;55.08
8039;BME280;4062;49.844;8.120;2022-08-01T05:44:48;99406.44;;;20.50;54.74
8039;BME280;4062;49.844;8.120;2022-08-01T05:46:51;99405.59;;;20.50;55.09
8039;BME280;4062;49.844;8.120;2022-08-01T05:48:51;99421.72;;;20.50;54.67
8039;BME280;4062;49.844;8.120;2022-08-01T05:50:53;99420.81;;;20.49;55.13
8039;BME280;4062;49.844;8.120;2022-08-01T05:52:54;99412.78;;;20.49;54.73
8039;BME280;4062;49.844;8.120;2022-08-01T05:54:55;99410.09;;;20.49;54.99
8039;BME280;4062;49.844;8.120;2022-08-01T05:56:56;99404.72;;;20.49;54.85
8039;BME280;4062;49.844;8.120;2022-08-01T05:59:00;99407.34;;;20.51;54.87
8039;BME280;4062;49.844;8.120;2022-08-01T06:01:00;99406.56;;;20.49;54.96
8039;BME280;4062;49.844;8.120;2022-08-01T06:03:01;99410.97;;;20.50;55.12
8039;BME280;4062;49.844;8.120;2022-08-01T06:05:02;99416.34;;;20.50;54.67
8039;BME280;4062;49.844;8.120;2022-08-01T06:07:03;99411.81;;;20.50;54.88
8039;BME280;4062;49.844;8.120;2022-08-01T06:09:03;99417.19;;;20.50;54.83
8039;BME280;4062;49.844;8.120;2022-08-01T06:11:05;99417.19;;;20.50;55.03
8039;BME280;4062;49.844;8.120;2022-08-01T06:13:06;99410.97;;;20.50;55.11
8039;BME280;4062;49.844;8.120;2022-08-01T06:15:07;99417.19;;;20.50;54.90
8039;BME280;4062;49.844;8.120;2022-08-01T06:17:08;99424.41;;;20.50;54.58
8039;BME280;4062;49.844;8.120;2022-08-01T06:19:08;99427.91;;;20.50;54.97
8039;BME280;4062;49.844;8.120;2022-08-01T06:21:09;99426.13;;;20.51;55.00
8039;BME280;4062;49.844;8.120;2022-08-01T06:23:10;99430.59;;;20.50;55.00
8039;BME280;4062;49.844;8.120;2022-08-01T06:25:11;99431.56;;;20.49;54.98
8039;BME280;4062;49.844;8.120;2022-08-01T06:27:11;99435.97;;;20.50;54.72
8039;BME280;4062;49.844;8.120;2022-08-01T06:29:12;99439.53;;;20.51;54.63
8039;BME280;4062;49.844;8.120;2022-08-01T06:31:13;99444.91;;;20.51;54.68
8039;BME280;4062;49.844;8.120;2022-08-01T06:33:15;99444.91;;;20.51;54.60
8039;BME280;4062;49.844;8.120;2022-08-01T06:35:15;99444.91;;;20.51;54.72
8039;BME280;4062;49.844;8.120;2022-08-01T06:37:16;99444.91;;;20.51;54.68
8039;BME280;4062;49.844;8.120;2022-08-01T06:39:17;99450.28;;;20.51;54.69
8039;BME280;4062;49.844;8.120;2022-08-01T06:41:17;99446.72;;;20.50;54.99
8039;BME280;4062;49.844;8.120;2022-08-01T06:43:18;99446.72;;;20.50;54.90
8039;BME280;4062;49.844;8.120;2022-08-01T06:45:19;99452.97;;;20.51;54.61
8039;BME280;4062;49.844;8.120;2022-08-01T06:47:22;99446.72;;;20.50;54.80
8039;BME280;4062;49.844;8.120;2022-08-01T06:49:23;99454.75;;;20.50;54.81
8039;BME280;4062;49.844;8.120;2022-08-01T06:51:24;99437.81;;;20.50;54.76
8039;BME280;4062;49.844;8.120;2022-08-01T06:53:25;99444.03;;;20.50;54.97
8039;BME280;4062;49.844;8.120;2022-08-01T06:55:25;99450.28;;;20.51;54.96
8039;BME280;4062;49.844;8.120;2022-08-01T06:57:26;99449.41;;;20.50;54.62
8039;BME280;4062;49.844;8.120;2022-08-01T06:59:27;99444.91;;;20.51;54.98
8039;BME280;4062;49.844;8.120;2022-08-01T07:01:29;99444.91;;;20.51;54.74
8039;BME280;4062;49.844;8.120;2022-08-01T07:03:29;99448.44;;;20.51;55.08
8039;BME280;4062;49.844;8.120;2022-08-01T07:05:30;99449.31;;;20.52;54.90
8039;BME280;4062;49.844;8.120;2022-08-01T07:07:31;99442.22;;;20.51;54.71
8039;BME280;4062;49.844;8.120;2022-08-01T07:09:32;99435.00;;;20.51;55.03
8039;BME280;4062;49.844;8.120;2022-08-01T07:11:32;99433.09;;;20.53;54.72
8039;BME280;4062;49.844;8.120;2022-08-01T07:13:33;99432.22;;;20.53;54.52
8039;BME280;4062;49.844;8.120;2022-08-01T07:15:34;99428.59;;;20.54;54.89
8039;BME280;4062;49.844;8.120;2022-08-01T07:17:39;99424.94;;;20.55;54.99
8039;BME280;4062;49.844;8.120;2022-08-01T07:19:40;99425.81;;;20.55;54.78
8039;BME280;4062;49.844;8.120;2022-08-01T07:21:41;99418.72;;;20.54;54.39
8039;BME280;4062;49.844;8.120;2022-08-01T07:23:42;99420.53;;;20.54;54.58
8039;BME280;4062;49.844;8.120;2022-08-01T07:25:43;99426.78;;;20.54;54.88
8039;BME280;4062;49.844;8.120;2022-08-01T07:27:43;99421.50;;;20.53;54.54
8039;BME280;4062;49.844;8.120;2022-08-01T07:29:45;99433.09;;;20.53;54.82
8039;BME280;4062;49.844;8.120;2022-08-01T07:31:45;99426.84;;;20.53;54.61
8039;BME280;4062;49.844;8.120;2022-08-01T07:33:46;99433.09;;;20.53;54.94
8039;BME280;4062;49.844;8.120;2022-08-01T07:35:47;99425.91;;;20.54;54.46
8039;BME280;4062;49.844;8.120;2022-08-01T07:37:47;99431.25;;;20.54;54.41
8039;BME280;4062;49.844;8.120;2022-08-01T07:39:48;99422.38;;;20.53;54.63
8039;BME280;4062;49.844;8.120;2022-08-01T07:41:49;99417.84;;;20.54;54.57
8039;BME280;4062;49.844;8.120;2022-08-01T07:43:49;99421.28;;;20.56;54.35
8039;BME280;4062;49.844;8.120;2022-08-01T07:45:50;99419.50;;;20.56;54.34
8039;BME280;4062;49.844;8.120;2022-08-01T07:47:51;99420.34;;;20.57;54.76
8039;BME280;4062;49.844;8.120;2022-08-01T07:49:58;99413.13;;;20.57;54.84
8039;BME280;4062;49.844;8.120;2022-08-01T07:51:59;99413.13;;;20.57;54.87
8039;BME280;4062;49.844;8.120;2022-08-01T07:54:00;99418.41;;;20.59;54.49
8039;BME280;4062;49.844;8.120;2022-08-01T07:56:01;99420.22;;;20.58;54.62
8039;BME280;4062;49.844;8.120;2022-08-01T07:58:03;99428.28;;;20.58;54.69
8039;BME280;4062;49.844;8.120;2022-08-01T08:00:05;99423.03;;;20.57;54.39
8039;BME280;4062;49.844;8.120;2022-08-01T08:02:07;99423.03;;;20.57;54.38
8039;BME280;4062;49.844;8.120;2022-08-01T08:04:07;99431.19;;;20.55;54.59
8039;BME280;4062;49.844;8.120;2022-08-01T08:06:08;99426.66;;;20.56;54.75
8039;BME280;4062;49.844;8.120;2022-08-01T08:08:09;99429.34;;;20.56;54.56
8039;BME280;4062;49.844;8.120;2022-08-01T08:10:10;99426.66;;;20.56;54.57
8039;BME280;4062;49.844;8.120;2022-08-01T08:12:11;99428.50;;;20.55;54.63
8039;BME280;4062;49.844;8.120;2022-08-01T08:14:12;99428.50;;;20.55;54.78
8039;BME280;4062;49.844;8.120;2022-08-01T08:16:13;99434.72;;;20.56;54.46
8039;BME280;4062;49.844;8.120;2022-08-01T08:18:14;99436.56;;;20.55;54.51
8039;BME280;4062;49.844;8.120;2022-08-01T08:20:15;99440.19;;;20.54;54.95
8039;BME280;4062;49.844;8.120;2022-08-01T08:22:16;99432.16;;;20.54;54.38
8039;BME280;4062;49.844;8.120;2022-08-01T08:24:17;99441.91;;;20.55;54.46
8039;BME280;4062;49.844;8.120;2022-08-01T08:26:20;99441.91;;;20.55;54.82
8039;BME280;4062;49.844;8.120;2022-08-01T08:28:21;99441.91;;;20.55;54.83
8039;BME280;4062;49.844;8.120;2022-08-01T08:30:21;99441.91;;;20.55;54.79
8039;BME280;4062;49.844;8.120;2022-08-01T08:32:22;99442.88;;;20.54;54.69
8039;BME280;4062;49.844;8.120;2022-08-01T08:34:24;99445.56;;;20.54;54.98
8039;BME280;4062;49.844;8.120;2022-08-01T08:36:25;99448.13;;;20.56;54.81
8039;BME280;4062;49.844;8.120;2022-08-01T08:38:26;99441.03;;;20.55;54.62
8039;BME280;4062;49.844;8.120;2022-08-01T08:40:30;99442.00;;;20.54;54.54
8039;BME280;4062;49.844;8.120;2022-08-01T08:42:32;99440.19;;;20.54;54.83
8039;BME280;4062;49.844;8.120;2022-08-01T08:44:33;99438.34;;;20.55;54.82
8039;BME280;4062;49.844;8.120;2022-08-01T08:46:51;99435.78;;;20.53;54.63
8039;BME280;4062;49.844;8.120;2022-08-01T08:48:52;99438.34;;;20.55;54.87
8039;BME280;4062;49.844;8.120;2022-08-01T08:50:53;99433.88;;;20.55;54.79
8039;BME280;4062;49.844;8.120;2022-08-01T08:52:56;99428.59;;;20.54;54.80
8039;BME280;4062;49.844;8.120;2022-08-01T08:54:58;99434.81;;;20.54;54.81
8039;BME280;4062;49.844;8.120;2022-08-01T08:57:00;99421.41;;;20.54;54.57
8039;BME280;4062;49.844;8.120;2022-08-01T08:59:03;99425.06;;;20.53;54.82
8039;BME280;4062;49.844;8.120;2022-08-01T09:01:07;99424.09;;;20.54;54.54
8039;BME280;4062;49.844;8.120;2022-08-01T09:03:09;99417.84;;;20.54;55.04
8039;BME280;4062;49.844;8.120;2022-08-01T09:05:10;99418.72;;;20.54;54.58
8039;BME280;4062;49.844;8.120;2022-08-01T09:07:11;99416.03;;;20.54;54.66
8039;BME280;4062;49.844;8.120;2022-08-01T09:09:14;99415.16;;;20.54;54.83
8039;BME280;4062;49.844;8.120;2022-08-01T09:11:15;99419.56;;;20.55;54.56
8039;BME280;4062;49.844;8.120;2022-08-01T09:13:15;99416.03;;;20.54;54.76
8039;BME280;4062;49.844;8.120;2022-08-01T09:15:16;99418.72;;;20.54;54.85
8039;BME280;4062;49.844;8.120;2022-08-01T09:17:17;99409.72;;;20.55;54.48
8039;BME280;4062;49.844;8.120;2022-08-01T09:19:19;99416.88;;;20.55;54.46
8039;BME280;4062;49.844;8.120;2022-08-01T09:21:21;99416.88;;;20.55;54.84
8039;BME280;4062;49.844;8.120;2022-08-01T09:25:51;99419.50;;;20.56;54.76
8039;BME280;4062;49.844;8.120;2022-08-01T09:28:05;99414.97;;;20.57;54.33
8039;BME280;4062;49.844;8.120;2022-08-01T09:30:15;99419.38;;;20.58;54.54
8039;BME280;4062;49.844;8.120;2022-08-01T09:32:16;99417.53;;;20.58;54.60
8039;BME280;4062;49.844;8.120;2022-08-01T09:34:28;99421.09;;;20.59;54.82
8039;BME280;4062;49.844;8.120;2022-08-01T09:38:54;99421.88;;;20.61;54.50
8039;BME280;4062;49.844;8.120;2022-08-01T09:40:57;99423.69;;;20.60;54.24
8039;BME280;4062;49.844;8.120;2022-08-01T09:43:11;99423.69;;;20.60;54.66
8039;BME280;4062;49.844;8.120;2022-08-01T09:45:32;99424.56;;;20.61;54.53
8039;BME280;4062;49.844;8.120;2022-08-01T09:47:40;99417.47;;;20.60;54.64
8039;BME280;4062;49.844;8.120;2022-08-01T09:49:42;99421.00;;;20.60;54.42
8039;BME280;4062;49.844;8.120;2022-08-01T09:51:43;99423.69;;;20.60;54.25
8039;BME280;4062;49.844;8.120;2022-08-01T09:53:47;99423.69;;;20.60;54.74
8039;BME280;4062;49.844;8.120;2022-08-01T09:55:48;99417.47;;;20.60;54.32
8039;BME280;4062;49.844;8.120;2022-08-01T09:57:57;99421.00;;;20.60;54.22
8039;BME280;4062;49.844;8.120;2022-08-01T10:00:02;99418.31;;;20.60;54.82
8039;BME280;4062;49.844;8.120;2022-08-01T10:02:03;99418.31;;;20.60;54.59
8039;BME280;4062;49.844;8.120;2022-08-01T10:04:19;99428.19;;;20.60;54.32
8039;BME280;4062;49.844;8.120;2022-08-01T10:06:21;99422.84;;;20.60;54.35
8039;BME280;4062;49.844;8.120;2022-08-01T10:08:22;99423.69;;;20.60;54.59
8039;BME280;4062;49.844;8.120;2022-08-01T10:10:25;99422.84;;;20.60;54.29
8039;BME280;4062;49.844;8.120;2022-08-01T10:12:26;99413.81;;;20.61;54.53
8039;BME280;4062;49.844;8.120;2022-08-01T10:14:28;99419.19;;;20.61;54.58
8039;BME280;4062;49.844;8.120;2022-08-01T10:16:30;99415.63;;;20.60;54.71
8039;BME280;4062;49.844;8.120;2022-08-01T10:18:34;99411.22;;;20.59;54.50
8039;BME280;4062;49.844;8.120;2022-08-01T10:20:34;99412.94;;;20.60;54.41
8039;BME280;4062;49.844;8.120;2022-08-01T10:22:35;99414.66;;;20.61;54.59
8039;BME280;4062;49.844;8.120;2022-08-01T10:24:39;99412.84;;;20.62;54.67
8039;BME280;4062;49.844;8.120;2022-08-01T10:26:40;99413.72;;;20.62;54.71
8039;BME280;4062;49.844;8.120;2022-08-01T10:28:44;99413.72;;;20.62;54.70
8039;BME280;4062;49.844;8.120;2022-08-01T10:30:48;99409.31;;;20.61;54.81
8039;BME280;4062;49.844;8.120;2022-08-01T10:32:50;99410.16;;;20.62;54.40
8039;BME280;4062;49.844;8.120;2022-08-01T10:34:53;99406.50;;;20.63;54.61
8039;BME280;4062;49.844;8.120;2022-08-01T10:36:55;99399.34;;;20.64;54.35
8039;BME280;4062;49.844;8.120;2022-08-01T10:38:56;99402.00;;;20.64;54.73
8039;BME280;4062;49.844;8.120;2022-08-01T10:40:59;99402.88;;;20.64;54.38
8039;BME280;4062;49.844;8.120;2022-08-01T10:43:02;99404.69;;;20.64;54.58
8039;BME280;4062;49.844;8.120;2022-08-01T10:45:04;99402.88;;;20.64;54.42
8039;BME280;4062;49.844;8.120;2022-08-01T10:47:14;99391.28;;;20.64;54.39
8039;BME280;4062;49.844;8.120;2022-08-01T10:49:17;99398.38;;;20.65;54.39
8039;BME280;4062;49.844;8.120;2022-08-01T10:51:20;99393.84;;;20.65;54.56
8039;BME280;4062;49.844;8.120;2022-08-01T10:53:24;99393.97;;;20.64;54.33
8039;BME280;4062;49.844;8.120;2022-08-01T10:55:25;99390.41;;;20.63;54.48
8039;BME280;4062;49.844;8.120;2022-08-01T10:57:45;99390.41;;;20.63;54.42
8039;BME280;4062;49.844;8.120;2022-08-01T10:59:51;99392.13;;;20.64;54.66
8039;BME280;4062;49.844;8.120;2022-08-01T11:02:05;99386.75;;;20.64;54.39
8039;BME280;4062;49.844;8.120;2022-08-01T11:04:12;99382.25;;;20.65;54.37
8039;BME280;4062;49.844;8.120;2022-08-01T11:06:17;99381.38;;;20.64;54.70
8039;BME280;4062;49.844;8.120;2022-08-01T11:08:22;99374.22;;;20.65;54.54
8039;BME280;4062;49.844;8.120;2022-08-01T11:10:37;99379.59;;;20.65;54.48
8039;BME280;4062;49.844;8.120;2022-08-01T11:12:40;99382.25;;;20.65;54.70
8039;BME280;4062;49.844;8.120;2022-08-01T11:17:42;99381.38;;;20.64;54.44
8039;BME280;4062;49.844;8.120;2022-08-01T11:22:15;99373.34;;;20.64;54.39
8039;BME280;4062;49.844;8.120;2022-08-01T11:24:16;99370.66;;;20.64;54.58
8039;BME280;4062;49.844;8.120;2022-08-01T11:26:36;99377.75;;;20.65;54.59
8039;BME280;4062;49.844;8.120;2022-08-01T11:28:38;99362.59;;;20.64;54.78
8039;BME280;4062;49.844;8.120;2022-08-01T11:30:42;99366.16;;;20.65;54.35
8039;BME280;4062;49.844;8.120;2022-08-01T11:32:55;99366.16;;;20.65;54.71
8039;BME280;4062;49.844;8.120;2022-08-01T11:34:56;99365.28;;;20.64;54.72
8039;BME280;4062;49.844;8.120;2022-08-01T11:37:28;99363.47;;;20.65;54.67